createdAt,value
2022-12-29T00:01:48.284Z,1.93
2022-12-29T00:04:16.757Z,1.73
2022-12-29T00:06:44.977Z,1.53
2022-12-29T00:09:13.368Z,1.60
2022-12-29T00:11:42.547Z,1.47
2022-12-29T00:14:28.754Z,2.00
2022-12-29T00:16:56.592Z,2.00
2022-12-29T00:19:42.290Z,1.90
2022-12-29T00:22:28.124Z,2.10
2022-12-29T00:25:09.780Z,1.87
2022-12-29T00:27:58.288Z,1.80
2022-12-29T00:30:47.719Z,1.27
2022-12-29T00:33:34.991Z,1.60
2022-12-29T00:36:06.228Z,1.43
2022-12-29T00:38:57.104Z,2.47
2022-12-29T00:41:42.628Z,1.60
2022-12-29T00:44:13.759Z,1.60
2022-12-29T00:46:43.913Z,1.40
2022-12-29T00:49:31.011Z,1.43
2022-12-29T00:52:01.092Z,1.17
2022-12-29T00:54:31.052Z,1.50
2022-12-29T00:56:58.845Z,1.00
2022-12-29T00:59:28.155Z,1.10
2022-12-29T01:01:59.242Z,1.10
2022-12-29T01:04:28.292Z,1.10
2022-12-29T01:06:56.145Z,1.10
2022-12-29T01:09:41.890Z,0.90
2022-12-29T01:29:57.821Z,0.60
2022-12-29T01:32:25.735Z,0.70
2022-12-29T01:34:53.434Z,0.50
2022-12-29T01:37:21.163Z,0.43
2022-12-29T01:39:48.915Z,0.30
2022-12-29T01:42:19.093Z,0.60
2022-12-29T01:44:55.961Z,0.37
2022-12-29T01:47:34.044Z,0.40
2022-12-29T01:50:06.843Z,0.50
2022-12-29T01:52:38.258Z,0.40
2022-12-29T01:55:07.908Z,0.50
2022-12-29T01:57:39.060Z,0.47
2022-12-29T02:00:10.210Z,0.60
2022-12-29T02:02:43.620Z,0.70
2022-12-29T02:05:17.987Z,0.50
2022-12-29T02:07:47.468Z,0.30
2022-12-29T02:10:15.706Z,0.50
2022-12-29T02:12:43.531Z,0.60
2022-12-29T02:15:11.592Z,0.50
2022-12-29T02:18:06.366Z,0.73
2022-12-29T02:21:13.047Z,0.50
2022-12-29T02:24:31.466Z,0.50
2022-12-29T02:27:38.572Z,0.70
2022-12-29T02:30:18.784Z,0.80
2022-12-29T02:33:00.332Z,0.83
2022-12-29T02:35:36.965Z,0.80
2022-12-29T02:38:14.958Z,0.80
2022-12-29T02:40:49.030Z,0.60
2022-12-29T02:43:25.483Z,0.80
2022-12-29T02:45:58.952Z,0.80
2022-12-29T02:48:36.143Z,0.97
2022-12-29T02:51:06.209Z,0.80
2022-12-29T02:53:53.882Z,0.60
2022-12-29T02:56:21.997Z,0.90
2022-12-29T02:58:49.828Z,0.67
2022-12-29T03:01:31.872Z,1.00
2022-12-29T03:04:23.927Z,1.00
2022-12-29T03:07:00.778Z,0.80
2022-12-29T03:09:38.865Z,0.80
2022-12-29T03:12:20.695Z,0.80
2022-12-29T03:15:19.112Z,0.90
2022-12-29T03:17:57.256Z,0.83
2022-12-29T03:20:34.131Z,0.60
2022-12-29T03:23:05.725Z,0.67
2022-12-29T03:25:40.845Z,0.50
2022-12-29T03:28:15.847Z,0.70
2022-12-29T03:30:48.566Z,0.80
2022-12-29T03:33:23.808Z,0.60
2022-12-29T03:35:58.042Z,0.50
2022-12-29T03:38:30.466Z,0.50
2022-12-29T03:41:02.677Z,0.60
2022-12-29T03:43:32.001Z,0.50
2022-12-29T03:46:00.168Z,0.90
2022-12-29T03:48:28.043Z,0.50
2022-12-29T03:50:58.746Z,0.70
2022-12-29T03:53:26.754Z,0.60
2022-12-29T03:55:54.750Z,0.80
2022-12-29T03:58:23.340Z,0.50
2022-12-29T04:01:01.584Z,0.73
2022-12-29T04:03:31.574Z,0.83
2022-12-29T04:06:00.981Z,0.60
2022-12-29T04:08:32.213Z,0.60
2022-12-29T04:10:59.917Z,0.60
2022-12-29T04:13:28.547Z,0.53
2022-12-29T04:15:56.678Z,0.70
2022-12-29T04:18:24.531Z,0.60
2022-12-29T04:21:03.563Z,0.60
2022-12-29T04:23:37.012Z,0.70
2022-12-29T04:26:10.071Z,0.83
2022-12-29T04:28:58.135Z,0.80
2022-12-29T04:31:41.735Z,0.70
2022-12-29T04:34:09.908Z,0.60
2022-12-29T04:36:37.815Z,0.77
2022-12-29T04:39:07.538Z,0.50
2022-12-29T04:41:36.614Z,0.53
2022-12-29T04:44:06.415Z,0.70
2022-12-29T04:46:35.167Z,0.70
2022-12-29T04:49:10.274Z,0.80
2022-12-29T04:51:56.209Z,0.77
2022-12-29T04:54:26.190Z,1.03
2022-12-29T04:57:05.372Z,0.70
2022-12-29T04:59:33.507Z,0.90
2022-12-29T05:02:02.103Z,0.80
2022-12-29T05:04:31.636Z,0.90
2022-12-29T05:06:59.470Z,0.70
2022-12-29T05:09:28.673Z,0.70
2022-12-29T05:11:56.728Z,0.77
2022-12-29T05:14:24.522Z,0.80
2022-12-29T05:16:52.343Z,0.67
2022-12-29T05:19:21.079Z,0.70
2022-12-29T05:21:48.897Z,0.80
2022-12-29T05:24:17.310Z,0.70
2022-12-29T05:26:47.869Z,0.83
2022-12-29T05:29:53.681Z,0.80
2022-12-29T05:32:22.170Z,0.80
2022-12-29T05:34:50.675Z,0.87
2022-12-29T05:37:19.582Z,0.67
2022-12-29T05:39:47.831Z,0.63
2022-12-29T05:42:17.343Z,0.73
2022-12-29T05:44:54.880Z,0.80
2022-12-29T05:47:36.711Z,0.73
2022-12-29T05:50:22.730Z,0.70
2022-12-29T05:53:08.912Z,0.80
2022-12-29T05:55:40.994Z,0.60
2022-12-29T05:58:14.550Z,1.03
2022-12-29T06:00:42.543Z,0.70
2022-12-29T06:03:12.013Z,0.60
2022-12-29T06:05:40.008Z,0.77
2022-12-29T06:08:07.943Z,0.60
2022-12-29T06:10:36.121Z,0.70
2022-12-29T06:13:06.776Z,0.60
2022-12-29T06:15:38.967Z,0.73
2022-12-29T06:18:10.802Z,0.70
2022-12-29T06:20:40.621Z,0.70
2022-12-29T06:23:09.362Z,0.60
2022-12-29T06:25:37.085Z,0.80
2022-12-29T06:28:06.171Z,0.63
2022-12-29T06:30:34.225Z,0.90
2022-12-29T06:33:05.173Z,0.90
2022-12-29T06:35:33.691Z,0.90
2022-12-29T06:38:01.480Z,0.70
2022-12-29T06:40:29.200Z,0.70
2022-12-29T06:43:17.450Z,0.87
2022-12-29T06:46:08.416Z,0.90
2022-12-29T06:48:37.598Z,0.80
2022-12-29T06:51:05.572Z,0.77
2022-12-29T06:53:33.360Z,0.93
2022-12-29T06:56:01.579Z,0.53
2022-12-29T06:58:29.300Z,0.90
2022-12-29T07:00:57.091Z,0.60
2022-12-29T07:03:24.908Z,0.80
2022-12-29T07:05:55.160Z,0.60
2022-12-29T07:08:22.877Z,0.57
2022-12-29T07:10:50.579Z,0.60
2022-12-29T07:13:18.303Z,0.60
2022-12-29T07:15:45.983Z,0.73
2022-12-29T07:18:13.735Z,0.80
2022-12-29T07:20:41.677Z,0.70
2022-12-29T07:23:10.777Z,0.60
2022-12-29T07:25:38.468Z,0.73
2022-12-29T07:28:06.244Z,0.63
2022-12-29T07:30:34.007Z,0.63
2022-12-29T07:33:01.715Z,0.90
2022-12-29T07:35:29.432Z,0.80
2022-12-29T07:37:57.135Z,0.87
2022-12-29T07:40:26.235Z,0.80
2022-12-29T07:42:53.933Z,0.70
2022-12-29T07:45:30.965Z,0.60
2022-12-29T07:48:10.506Z,1.17
2022-12-29T07:50:38.748Z,0.90
2022-12-29T07:53:06.593Z,0.80
2022-12-29T07:55:35.699Z,0.60
2022-12-29T07:58:03.473Z,1.10
2022-12-29T08:00:31.317Z,0.93
2022-12-29T08:03:00.261Z,0.90
2022-12-29T08:05:28.287Z,1.03
2022-12-29T08:07:57.175Z,1.40
2022-12-29T08:10:24.987Z,1.00
2022-12-29T08:12:57.052Z,0.90
2022-12-29T08:15:32.365Z,1.43
2022-12-29T08:18:00.827Z,1.00
2022-12-29T08:20:28.713Z,0.83
2022-12-29T08:22:56.462Z,0.93
2022-12-29T08:25:24.305Z,0.97
2022-12-29T08:27:52.803Z,1.47
2022-12-29T08:30:22.108Z,0.90
2022-12-29T08:32:49.946Z,1.07
2022-12-29T08:35:17.870Z,1.13
2022-12-29T08:37:45.661Z,1.23
2022-12-29T08:40:14.882Z,1.27
2022-12-29T08:42:42.692Z,1.17
2022-12-29T08:45:11.142Z,1.33
2022-12-29T08:47:40.257Z,1.30
2022-12-29T08:50:09.068Z,1.10
2022-12-29T08:52:36.764Z,1.20
2022-12-29T08:55:04.971Z,1.02
2022-12-29T08:57:35.285Z,1.30
2022-12-29T09:00:09.259Z,1.17
2022-12-29T09:02:38.168Z,1.17
2022-12-29T09:05:10.686Z,1.20
2022-12-29T09:07:38.549Z,0.93
2022-12-29T09:10:07.459Z,1.30
2022-12-29T09:12:36.713Z,1.47
2022-12-29T09:15:05.744Z,1.30
2022-12-29T09:17:46.364Z,0.93
2022-12-29T09:20:18.255Z,0.87
2022-12-29T09:22:47.096Z,1.57
2022-12-29T09:25:15.931Z,1.60
2022-12-29T09:27:43.779Z,1.27
2022-12-29T09:30:15.350Z,1.07
2022-12-29T09:32:45.488Z,1.20
2022-12-29T09:35:16.282Z,1.60
2022-12-29T09:37:44.798Z,1.20
2022-12-29T09:40:27.125Z,1.07
2022-12-29T09:43:19.575Z,1.33
2022-12-29T09:45:55.615Z,1.90
2022-12-29T09:48:29.973Z,1.30
2022-12-29T09:51:02.817Z,1.40
2022-12-29T09:53:39.132Z,1.30
2022-12-29T09:56:13.888Z,1.10
2022-12-29T09:58:46.949Z,1.20
2022-12-29T10:01:27.245Z,1.63
2022-12-29T10:04:00.122Z,1.00
2022-12-29T10:07:03.519Z,1.63
2022-12-29T10:09:35.855Z,1.63
2022-12-29T10:12:20.214Z,1.57
2022-12-29T10:15:00.779Z,1.93
2022-12-29T10:17:38.215Z,1.57
2022-12-29T10:20:27.366Z,1.87
2022-12-29T10:23:08.384Z,1.30
2022-12-29T10:25:40.679Z,1.23
2022-12-29T10:28:24.162Z,1.13
2022-12-29T10:30:54.334Z,1.70
2022-12-29T10:33:25.277Z,1.20
2022-12-29T10:35:53.864Z,1.40
2022-12-29T10:38:29.672Z,1.63
2022-12-29T10:41:02.519Z,1.30
2022-12-29T10:43:32.286Z,1.37
2022-12-29T10:46:04.266Z,1.43
2022-12-29T10:48:35.142Z,1.13
2022-12-29T10:51:06.286Z,1.20
2022-12-29T10:53:42.077Z,1.33
2022-12-29T10:56:21.899Z,1.38
2022-12-29T10:58:52.113Z,1.00
2022-12-29T11:01:21.450Z,1.50
2022-12-29T11:04:04.565Z,1.23
2022-12-29T11:06:33.048Z,1.00
2022-12-29T11:09:10.282Z,1.20
2022-12-29T11:11:39.339Z,1.33
2022-12-29T11:14:14.856Z,1.27
2022-12-29T11:16:45.163Z,1.40
2022-12-29T11:19:23.985Z,1.23
2022-12-29T11:21:51.980Z,1.30
2022-12-29T11:24:25.959Z,1.30
2022-12-29T11:26:58.366Z,1.73
2022-12-29T11:29:28.699Z,1.20
2022-12-29T11:31:59.981Z,1.40
2022-12-29T11:34:32.360Z,1.20
2022-12-29T11:37:04.204Z,1.47
2022-12-29T11:39:38.804Z,1.70
2022-12-29T11:42:14.408Z,1.50
2022-12-29T11:44:46.059Z,1.60
2022-12-29T11:47:23.507Z,1.27
2022-12-29T11:49:54.388Z,1.63
2022-12-29T11:52:25.939Z,1.63
2022-12-29T11:54:56.817Z,1.40
2022-12-29T11:57:26.737Z,1.92
2022-12-29T11:59:56.876Z,1.63
2022-12-29T12:02:44.595Z,1.75
2022-12-29T12:05:19.213Z,1.80
2022-12-29T12:07:49.467Z,1.73
2022-12-29T12:10:25.672Z,1.70
2022-12-29T12:13:00.547Z,1.27
2022-12-29T12:15:33.220Z,1.30
2022-12-29T12:18:07.420Z,1.63
2022-12-29T12:20:44.617Z,1.90
2022-12-29T12:23:27.420Z,1.52
2022-12-29T12:26:03.672Z,1.70
2022-12-29T12:28:39.616Z,1.50
2022-12-29T12:31:15.234Z,1.25
2022-12-29T12:33:48.608Z,1.50
2022-12-29T12:36:50.795Z,1.20
2022-12-29T12:39:28.266Z,1.57
2022-12-29T12:42:10.844Z,1.30
2022-12-29T12:44:51.633Z,1.47
2022-12-29T12:47:40.618Z,1.80
2022-12-29T12:50:21.308Z,1.57
2022-12-29T12:53:10.059Z,1.52
2022-12-29T12:56:03.286Z,1.45
2022-12-29T12:58:38.899Z,1.17
2022-12-29T13:01:20.265Z,1.70
2022-12-29T13:04:02.740Z,1.20
2022-12-29T13:06:40.679Z,1.20
2022-12-29T13:09:44.384Z,1.53
2022-12-29T13:12:21.154Z,1.67
2022-12-29T13:15:01.773Z,1.43
2022-12-29T13:17:36.711Z,1.58
2022-12-29T13:20:12.461Z,1.40
2022-12-29T13:22:51.581Z,1.48
2022-12-29T13:25:31.845Z,1.35
2022-12-29T13:28:05.890Z,1.15
2022-12-29T13:30:42.399Z,1.53
2022-12-29T13:33:21.867Z,1.77
2022-12-29T13:35:58.768Z,1.27
2022-12-29T13:38:32.459Z,1.43
2022-12-29T13:41:06.137Z,1.30
2022-12-29T13:43:36.365Z,1.58
2022-12-29T13:46:11.860Z,1.57
2022-12-29T13:48:45.455Z,1.27
2022-12-29T13:51:14.162Z,1.30
2022-12-29T13:53:57.371Z,1.57
2022-12-29T13:56:31.849Z,1.87
2022-12-29T13:59:07.164Z,1.50
2022-12-29T14:01:39.694Z,1.90
2022-12-29T14:04:13.832Z,1.87
2022-12-29T14:06:43.276Z,1.47
2022-12-29T14:09:36.613Z,1.40
2022-12-29T14:12:22.299Z,1.20
2022-12-29T14:14:50.569Z,1.20
2022-12-29T14:17:22.782Z,1.50
2022-12-29T14:19:55.933Z,1.10
2022-12-29T14:22:33.031Z,1.23
2022-12-29T14:25:01.649Z,1.00
2022-12-29T14:27:55.284Z,1.60
2022-12-29T14:31:00.163Z,1.10
2022-12-29T14:33:31.913Z,1.50
2022-12-29T14:36:23.743Z,1.30
2022-12-29T14:38:51.603Z,1.67
2022-12-29T14:41:26.339Z,1.15
2022-12-29T14:43:58.183Z,1.10
2022-12-29T14:46:26.787Z,1.77
2022-12-29T14:49:02.255Z,1.10
2022-12-29T14:51:34.285Z,1.00
2022-12-29T14:54:02.162Z,1.30
2022-12-29T14:56:32.688Z,1.20
2022-12-29T14:59:03.469Z,1.10
2022-12-29T15:01:42.318Z,1.10
2022-12-29T15:04:21.163Z,1.30
2022-12-29T15:06:51.281Z,1.40
2022-12-29T15:09:29.806Z,1.17
2022-12-29T15:12:03.355Z,2.03
2022-12-29T15:14:37.034Z,1.60
2022-12-29T15:17:12.766Z,1.43
2022-12-29T15:19:41.892Z,1.70
2022-12-29T15:22:11.461Z,1.60
2022-12-29T15:24:44.023Z,1.17
2022-12-29T15:27:16.157Z,1.90
2022-12-29T15:29:45.782Z,1.53
2022-12-29T15:32:22.987Z,1.50
2022-12-29T15:34:54.181Z,1.73
2022-12-29T15:37:24.835Z,1.70
2022-12-29T15:39:54.060Z,1.40
2022-12-29T15:42:34.545Z,1.40
2022-12-29T15:45:10.912Z,1.57
2022-12-29T15:47:43.615Z,1.77
2022-12-29T15:50:22.235Z,1.60
2022-12-29T15:52:50.290Z,1.60
2022-12-29T15:55:26.544Z,1.47
2022-12-29T15:57:59.465Z,1.40
2022-12-29T16:00:29.637Z,1.60
2022-12-29T16:03:00.574Z,2.03
2022-12-29T16:05:36.387Z,1.40
2022-12-29T16:08:04.825Z,1.70
2022-12-29T16:10:37.814Z,2.03
2022-12-29T16:13:12.263Z,1.70
2022-12-29T16:15:40.131Z,1.63
2022-12-29T16:18:13.658Z,2.00
2022-12-29T16:20:44.594Z,1.67
2022-12-29T16:23:22.204Z,1.53
2022-12-29T16:25:50.086Z,1.70
2022-12-29T16:28:22.225Z,2.17
2022-12-29T16:31:00.119Z,2.00
2022-12-29T16:33:38.685Z,1.70
2022-12-29T16:36:26.854Z,1.73
2022-12-29T16:39:06.734Z,1.73
2022-12-29T16:41:34.427Z,1.70
2022-12-29T16:44:17.820Z,1.37
2022-12-29T16:46:59.550Z,1.87
2022-12-29T16:49:27.979Z,1.70
2022-12-29T16:51:57.948Z,1.80
2022-12-29T16:54:29.177Z,1.50
2022-12-29T16:56:57.634Z,1.47
2022-12-29T16:59:34.548Z,1.73
2022-12-29T17:02:07.569Z,1.70
2022-12-29T17:04:35.445Z,2.03
2022-12-29T17:07:04.710Z,2.37
2022-12-29T17:09:32.699Z,1.63
2022-12-29T17:12:10.933Z,1.70
2022-12-29T17:14:44.737Z,2.07
2022-12-29T17:17:16.798Z,1.90
2022-12-29T17:19:47.796Z,2.03
2022-12-29T17:22:19.107Z,2.30
2022-12-29T17:24:46.993Z,2.13
2022-12-29T17:27:23.833Z,1.97
2022-12-29T17:29:54.212Z,1.67
2022-12-29T17:32:22.012Z,1.90
2022-12-29T17:34:49.816Z,1.90
2022-12-29T17:37:42.959Z,1.70
2022-12-29T17:40:15.946Z,2.10
2022-12-29T17:42:45.170Z,2.47
2022-12-29T17:45:17.869Z,2.17
2022-12-29T17:47:45.951Z,2.13
2022-12-29T17:50:15.593Z,2.17
2022-12-29T17:52:55.337Z,2.30
2022-12-29T17:55:34.593Z,2.93
2022-12-29T17:58:16.232Z,2.33
2022-12-29T18:00:44.124Z,2.23
2022-12-29T18:03:16.783Z,2.13
2022-12-29T18:05:44.900Z,2.23
2022-12-29T18:08:14.142Z,2.60
2022-12-29T18:10:43.317Z,1.83
2022-12-29T18:13:20.190Z,2.57
2022-12-29T18:15:48.079Z,2.53
2022-12-29T18:18:17.707Z,2.60
2022-12-29T18:20:47.408Z,2.57
2022-12-29T18:23:21.030Z,2.60
2022-12-29T18:25:52.869Z,2.47
2022-12-29T18:28:20.993Z,2.43
2022-12-29T18:30:49.105Z,2.23
2022-12-29T18:33:22.604Z,2.63
2022-12-29T18:35:54.231Z,2.53
2022-12-29T18:38:23.558Z,2.17
2022-12-29T18:40:51.560Z,2.23
2022-12-29T18:43:20.068Z,2.43
2022-12-29T18:45:48.290Z,2.70
2022-12-29T18:48:17.011Z,2.90
2022-12-29T18:50:45.367Z,2.90
2022-12-29T18:53:17.488Z,2.47
2022-12-29T18:55:46.622Z,2.47
2022-12-29T18:58:15.218Z,2.07
2022-12-29T19:00:43.319Z,2.40
2022-12-29T19:03:13.376Z,2.20
2022-12-29T19:05:43.277Z,2.57
2022-12-29T19:08:11.734Z,2.53
2022-12-29T19:10:40.761Z,2.40
2022-12-29T19:13:15.997Z,2.10
2022-12-29T19:15:44.088Z,2.63
2022-12-29T19:18:42.910Z,2.13
2022-12-29T19:21:05.808Z,2.57
2022-12-29T19:23:33.857Z,2.30
2022-12-29T19:26:01.639Z,2.43
2022-12-29T19:28:31.120Z,2.33
2022-12-29T19:31:00.968Z,2.73
2022-12-29T19:33:29.680Z,2.57
2022-12-29T19:36:01.225Z,2.40
2022-12-29T19:38:29.449Z,2.43
2022-12-29T19:40:57.565Z,3.13
2022-12-29T19:43:25.448Z,2.40
2022-12-29T19:45:54.553Z,2.23
2022-12-29T19:48:22.390Z,2.20
2022-12-29T19:50:50.151Z,2.50
2022-12-29T19:53:17.903Z,2.33
2022-12-29T19:55:46.651Z,2.87
2022-12-29T19:58:14.986Z,2.50
2022-12-29T20:00:43.968Z,2.70
2022-12-29T20:03:13.332Z,2.40
2022-12-29T20:05:41.541Z,2.30
2022-12-29T20:08:09.395Z,1.93
2022-12-29T20:10:37.073Z,2.50
2022-12-29T20:13:06.067Z,2.40
2022-12-29T20:15:33.844Z,1.80
2022-12-29T20:18:13.357Z,2.37
2022-12-29T20:20:43.317Z,2.40
2022-12-29T20:23:11.185Z,2.67
2022-12-29T20:25:47.492Z,2.63
2022-12-29T20:28:17.031Z,2.37
2022-12-29T20:30:44.971Z,2.67
2022-12-29T20:33:13.152Z,2.13
2022-12-29T20:35:40.922Z,2.87
2022-12-29T20:38:10.110Z,2.00
2022-12-29T20:40:44.122Z,2.20
2022-12-29T20:43:14.673Z,2.53
2022-12-29T20:45:42.554Z,2.07
2022-12-29T20:48:10.416Z,2.43
2022-12-29T20:50:38.229Z,2.63
2022-12-29T20:53:06.497Z,2.73
2022-12-29T20:55:35.812Z,2.47
2022-12-29T21:00:52.287Z,2.63
2022-12-29T21:03:20.190Z,3.10
2022-12-29T21:05:48.131Z,2.10
2022-12-29T21:08:15.878Z,2.93
2022-12-29T21:10:48.442Z,2.50
2022-12-29T21:13:17.429Z,2.57
2022-12-29T21:15:45.509Z,1.93
2022-12-29T21:18:14.371Z,2.77
2022-12-29T21:20:42.502Z,2.70
2022-12-29T21:23:10.959Z,2.17
2022-12-29T21:25:44.759Z,2.47
2022-12-29T21:28:13.918Z,2.90
2022-12-29T21:30:42.250Z,2.33
2022-12-29T21:33:10.149Z,2.70
2022-12-29T21:35:38.830Z,2.87
2022-12-29T21:38:06.678Z,2.97
2022-12-29T21:40:36.147Z,2.47
2022-12-29T21:43:04.168Z,2.57
2022-12-29T21:45:32.513Z,2.70
2022-12-29T21:48:19.527Z,2.07
2022-12-29T21:51:18.203Z,2.50
2022-12-29T21:53:46.931Z,2.90
2022-12-29T21:56:19.128Z,2.10
2022-12-29T21:59:06.035Z,2.20
2022-12-29T22:01:54.826Z,2.70
2022-12-29T22:04:42.617Z,2.53
2022-12-29T22:07:30.327Z,2.43
2022-12-29T22:10:15.660Z,2.50
2022-12-29T22:13:03.037Z,2.23
2022-12-29T22:15:33.378Z,2.00
2022-12-29T22:18:03.209Z,2.77
2022-12-29T22:20:33.651Z,2.43
2022-12-29T22:23:02.162Z,2.43
2022-12-29T22:25:30.066Z,2.13
2022-12-29T22:27:59.779Z,2.37
2022-12-29T22:30:28.521Z,2.23
2022-12-29T22:32:57.687Z,2.17
2022-12-29T22:35:26.852Z,2.43
2022-12-29T22:37:54.818Z,2.17
2022-12-29T22:40:22.606Z,2.63
2022-12-29T22:42:50.331Z,2.37
2022-12-29T22:45:18.204Z,2.20
2022-12-29T22:47:45.982Z,2.60
2022-12-29T22:50:13.808Z,2.17
2022-12-29T22:52:42.947Z,2.57
2022-12-29T22:55:10.892Z,3.00
2022-12-29T22:57:38.652Z,2.73
2022-12-29T23:00:09.550Z,2.00
2022-12-29T23:02:37.474Z,2.17
2022-12-29T23:05:06.819Z,2.53
2022-12-29T23:07:36.028Z,2.47
2022-12-29T23:10:06.067Z,2.40
2022-12-29T23:12:33.875Z,2.10
2022-12-29T23:15:01.594Z,2.27
2022-12-29T23:17:29.940Z,2.20
2022-12-29T23:19:57.689Z,2.77
2022-12-29T23:22:25.476Z,2.43
2022-12-29T23:24:53.247Z,2.30
2022-12-29T23:27:22.300Z,2.57
2022-12-29T23:29:50.048Z,2.90
2022-12-29T23:32:17.768Z,2.60
2022-12-29T23:34:45.441Z,2.30
2022-12-29T23:37:13.180Z,2.90
2022-12-29T23:39:40.934Z,2.67
2022-12-29T23:42:08.734Z,2.60
2022-12-29T23:44:37.874Z,2.17
2022-12-29T23:47:05.736Z,2.30
2022-12-29T23:49:33.599Z,3.03
2022-12-29T23:52:01.364Z,2.07
2022-12-29T23:54:29.073Z,2.27
2022-12-29T23:56:56.815Z,2.70
2022-12-29T23:59:24.599Z,2.40
